Terminal Aerodrome Forecast
Issued by NWS

Home | Current Version | Previous Version | Text Only | Print | Product List | Glossary On
Versions: 1 2 3 4 5 6 7 8 9 10 11 12
486
FTUS46 KSGX 182323
TAFONT
TAF
KONT 182323Z 1900/2006 26010KT P6SM SKC
     FM190400 VRB04KT P6SM SKC
     FM192100 26010KT P6SM SKC
     FM200400 VRB04KT P6SM FEW010=

USA.gov is the U.S. government's official web portal to all federal, state and local government web resources and services.